Time;durP1;ratioP1;P1;durP2;ratioP2;P2;SDS_P1;SDS_P2;PMS_P1;PMS_P2;Temp;Humidity;BMP_temperature;BMP_pressure;BME280_temperature;BME280_humidity;BME280_pressure;Samples;Min_cycle;Max_cycle;Signal;HPM_P1;HPM_P2
2023/01/31 00:01:22;;;;;;;22.25;6.00;;;;;;;3.17;100.00;98932.44;5070817;28;20173;-77
2023/01/31 00:03:51;;;;;;;21.38;5.10;;;;;;;3.21;100.00;98944.31;5071745;28;20036;-76
2023/01/31 00:06:28;;;;;;;22.40;5.22;;;;;;;3.22;100.00;98955.47;5071924;28;20039;-77
2023/01/31 00:08:55;;;;;;;23.15;6.03;;;;;;;3.27;100.00;98948.44;5071938;28;20029;-76
2023/01/31 00:11:23;;;;;;;21.33;5.68;;;;;;;3.15;100.00;98959.06;5072309;28;20365;-76
2023/01/31 00:13:49;;;;;;;24.13;6.22;;;;;;;3.33;100.00;98976.59;5071663;28;20483;-77
2023/01/31 00:16:16;;;;;;;27.70;6.40;;;;;;;3.30;100.00;98980.97;5072033;28;20025;-76
2023/01/31 00:18:42;;;;;;;25.15;6.50;;;;;;;3.16;100.00;98946.19;5071497;28;20469;-76
2023/01/31 00:21:16;;;;;;;27.75;6.15;;;;;;;3.30;100.00;98962.97;5071891;28;20050;-76
2023/01/31 00:23:42;;;;;;;25.45;7.47;;;;;;;3.29;100.00;98967.28;5071179;28;20049;-77
2023/01/31 00:26:13;;;;;;;26.60;5.72;;;;;;;3.34;100.00;98998.03;5071846;28;20555;-77
2023/01/31 00:28:40;;;;;;;22.95;5.95;;;;;;;3.25;100.00;98968.25;5071550;28;20021;-77
2023/01/31 00:31:06;;;;;;;28.15;7.38;;;;;;;3.27;100.00;98957.91;5071764;28;20036;-76
2023/01/31 00:33:33;;;;;;;24.95;8.32;;;;;;;3.35;100.00;98981.69;5071509;28;20411;-76
2023/01/31 00:36:02;;;;;;;22.25;7.38;;;;;;;3.24;100.00;98985.41;5071710;28;20036;-76
2023/01/31 00:38:28;;;;;;;26.45;6.53;;;;;;;3.14;100.00;98994.25;5071551;28;20025;-76
2023/01/31 00:40:54;;;;;;;23.08;6.10;;;;;;;3.04;100.00;98984.28;5071886;28;20033;-77
2023/01/31 00:43:19;;;;;;;18.73;6.15;;;;;;;3.03;100.00;98993.69;5071832;28;20055;-77
2023/01/31 00:45:44;;;;;;;28.33;10.27;;;;;;;3.12;100.00;99005.47;5071565;28;20075;-76
2023/01/31 00:48:10;;;;;;;23.23;6.20;;;;;;;3.13;100.00;99027.75;5071625;28;20021;-77
2023/01/31 00:50:35;;;;;;;24.90;4.90;;;;;;;3.18;100.00;99036.19;5071594;28;20115;-76
2023/01/31 00:53:01;;;;;;;23.45;5.38;;;;;;;3.08;100.00;99011.59;5071541;28;20052;-77
2023/01/31 00:55:27;;;;;;;21.73;5.63;;;;;;;3.31;100.00;99031.56;5071394;28;20127;-76
2023/01/31 00:57:52;;;;;;;18.55;4.75;;;;;;;3.10;100.00;98995.22;5071425;28;20017;-76
2023/01/31 01:00:18;;;;;;;25.70;4.78;;;;;;;3.20;100.00;99004.41;5071434;28;20074;-77
2023/01/31 01:02:43;;;;;;;18.83;5.13;;;;;;;3.33;100.00;99017.78;5071137;28;20380;-76
2023/01/31 01:05:08;;;;;;;23.52;5.93;;;;;;;3.36;100.00;99019.41;5071211;28;20384;-76
2023/01/31 01:07:34;;;;;;;20.73;5.65;;;;;;;3.24;100.00;99033.44;5071316;28;20431;-77
2023/01/31 01:09:59;;;;;;;26.33;5.82;;;;;;;3.14;100.00;99042.31;5071472;28;20025;-76
2023/01/31 01:12:25;;;;;;;21.35;5.50;;;;;;;3.02;100.00;99034.91;5071475;28;20466;-76
2023/01/31 01:14:50;;;;;;;18.42;4.85;;;;;;;3.10;100.00;99051.00;5071100;28;20046;-76
2023/01/31 01:17:15;;;;;;;18.08;5.20;;;;;;;3.03;100.00;99054.59;5071299;28;20393;-76
2023/01/31 01:19:41;;;;;;;19.17;4.43;;;;;;;2.95;100.00;99035.06;5071044;28;20036;-77
2023/01/31 01:22:06;;;;;;;18.30;4.25;;;;;;;3.04;100.00;99043.44;5071456;28;20078;-76
2023/01/31 01:24:31;;;;;;;19.30;4.55;;;;;;;3.05;100.00;99069.13;5071089;28;20048;-76
2023/01/31 01:26:57;;;;;;;16.20;4.18;;;;;;;3.03;100.00;99049.44;5071344;28;20024;-76
2023/01/31 01:29:22;;;;;;;19.38;4.00;;;;;;;3.21;100.00;99080.72;5071281;28;20025;-77
2023/01/31 01:31:47;;;;;;;17.70;4.50;;;;;;;3.05;100.00;99042.56;5073311;28;20020;-76
2023/01/31 01:34:14;;;;;;;18.38;5.03;;;;;;;3.24;99.94;99074.63;5074807;28;20025;-76
2023/01/31 01:36:41;;;;;;;19.55;4.35;;;;;;;3.06;99.81;99054.53;5074572;28;20035;-77
2023/01/31 01:39:08;;;;;;;16.73;3.50;;;;;;;3.25;98.95;99084.91;5074913;28;20028;-77
2023/01/31 01:41:34;;;;;;;17.20;4.43;;;;;;;3.11;98.75;99065.53;5074296;28;20033;-76
2023/01/31 01:44:02;;;;;;;14.50;3.97;;;;;;;3.09;98.19;99070.72;5074524;28;20464;-76
2023/01/31 01:46:32;;;;;;;20.00;4.07;;;;;;;3.10;97.25;99081.88;5074576;28;20024;-77
2023/01/31 01:49:19;;;;;;;15.38;3.83;;;;;;;3.19;96.89;99108.19;5075067;28;20032;-76
2023/01/31 01:51:48;;;;;;;12.73;4.22;;;;;;;3.00;96.92;99079.53;5074279;28;20105;-76
2023/01/31 01:54:19;;;;;;;19.35;4.28;;;;;;;3.10;96.73;99089.59;5074783;28;20029;-76
2023/01/31 01:56:48;;;;;;;21.85;4.55;;;;;;;3.08;96.12;99081.06;5074281;28;20035;-76
2023/01/31 01:59:17;;;;;;;15.77;4.00;;;;;;;3.17;95.75;99104.00;5074052;28;20033;-77
2023/01/31 02:01:45;;;;;;;17.63;3.75;;;;;;;3.22;95.16;99109.84;5074434;28;20025;-76
2023/01/31 02:04:16;;;;;;;21.70;4.70;;;;;;;3.24;95.07;99111.53;5074496;28;20512;-77
2023/01/31 02:06:43;;;;;;;17.52;3.72;;;;;;;2.98;94.93;99094.13;5074096;28;20028;-77
2023/01/31 02:09:18;;;;;;;17.63;3.30;;;;;;;3.13;94.79;99110.09;5074205;28;20033;-76
2023/01/31 02:11:43;;;;;;;13.63;3.47;;;;;;;3.08;94.78;99119.66;5073774;28;20029;-76
2023/01/31 02:14:10;;;;;;;17.65;3.58;;;;;;;3.10;94.18;99135.91;5074327;28;20117;-77
2023/01/31 02:16:35;;;;;;;21.85;3.80;;;;;;;3.18;93.99;99133.97;5073826;28;20025;-77
2023/01/31 02:19:02;;;;;;;18.52;3.80;;;;;;;3.10;93.54;99136.72;5074069;28;20028;-76
2023/01/31 02:21:40;;;;;;;14.90;3.85;;;;;;;3.34;94.05;99155.03;5074268;28;20027;-77
2023/01/31 02:24:33;;;;;;;12.15;3.38;;;;;;;3.34;94.13;99162.75;5073828;28;20495;-76
2023/01/31 02:27:26;;;;;;;17.73;3.83;;;;;;;3.30;94.24;99161.97;5074024;28;20029;-76
2023/01/31 02:30:00;;;;;;;13.95;3.25;;;;;;;3.17;94.83;99147.72;5073612;28;20085;-77
2023/01/31 02:32:54;;;;;;;18.02;4.13;;;;;;;3.30;94.98;99153.41;5073503;28;20479;-77
2023/01/31 02:35:45;;;;;;;13.13;3.70;;;;;;;3.14;95.19;99138.34;5074147;28;20111;-77
2023/01/31 02:38:34;;;;;;;13.60;4.18;;;;;;;3.29;95.72;99173.16;5073664;28;20028;-76
2023/01/31 02:41:41;;;;;;;16.90;3.83;;;;;;;3.27;95.78;99176.66;5011426;28;20038;-76
2023/01/31 02:47:30;;;;;;;14.35;3.45;;;;;;;3.21;95.89;99178.50;4915205;29;20504;-77
2023/01/31 02:50:04;;;;;;;14.38;3.63;;;;;;;3.11;96.22;99171.88;4914593;29;20048;-77
2023/01/31 02:52:41;;;;;;;16.50;3.90;;;;;;;3.04;96.44;99188.34;4914800;29;20047;-76
2023/01/31 02:58:06;;;;;;;19.55;4.65;;;;;;;3.12;95.83;99190.72;4914973;29;20116;-76
2023/01/31 03:00:35;;;;;;;17.20;3.95;;;;;;;3.27;96.03;99218.69;4914589;29;20043;-76
2023/01/31 03:03:04;;;;;;;21.10;4.00;;;;;;;3.11;94.83;99218.19;4914328;29;20042;-77
2023/01/31 03:05:30;;;;;;;21.02;4.38;;;;;;;3.05;94.81;99209.78;4914396;29;20076;-77
2023/01/31 03:07:59;;;;;;;17.00;4.07;;;;;;;3.22;94.55;99234.22;4914237;29;20052;-77
2023/01/31 03:10:45;;;;;;;13.32;3.40;;;;;;;3.07;94.29;99238.88;4914484;29;20588;-76
2023/01/31 03:13:23;;;;;;;12.95;3.63;;;;;;;2.99;94.22;99247.63;4914476;29;20036;-76
2023/01/31 03:18:51;;;;;;;17.70;3.30;;;;;;;2.98;94.24;99245.06;4958962;28;20073;-76
2023/01/31 03:21:25;;;;;;;23.08;4.30;;;;;;;2.73;94.89;99234.47;5027960;28;20516;-77
2023/01/31 03:23:54;;;;;;;16.25;3.78;;;;;;;2.93;96.02;99246.91;5072468;28;20058;-76
2023/01/31 03:26:21;;;;;;;15.73;3.78;;;;;;;2.97;96.60;99263.97;5072685;28;20024;-76
2023/01/31 03:28:53;;;;;;;16.13;3.08;;;;;;;2.71;97.13;99234.53;5072321;28;20038;-76
2023/01/31 03:31:24;;;;;;;15.32;3.85;;;;;;;2.67;97.48;99245.75;5072631;28;20430;-76
2023/01/31 03:34:10;;;;;;;16.92;3.80;;;;;;;2.81;97.22;99260.03;5072392;28;20034;-76
2023/01/31 03:36:56;;;;;;;24.33;3.78;;;;;;;2.76;97.08;99255.00;5072482;28;20025;-76
2023/01/31 03:39:30;;;;;;;16.73;3.88;;;;;;;2.90;96.53;99265.81;5072354;28;20371;-77
2023/01/31 03:42:06;;;;;;;18.25;4.10;;;;;;;2.72;96.23;99250.78;5070989;28;20393;-76
2023/01/31 03:44:54;;;;;;;22.95;4.38;;;;;;;2.86;96.24;99271.06;5072231;28;20032;-76
2023/01/31 03:47:27;;;;;;;14.55;3.58;;;;;;;2.86;95.84;99268.50;5072239;28;20029;-76
2023/01/31 03:49:55;;;;;;;12.20;3.60;;;;;;;2.93;95.14;99278.63;5072021;28;20499;-76
2023/01/31 03:52:32;;;;;;;19.20;4.38;;;;;;;2.83;94.37;99255.72;5072335;28;20111;-76
2023/01/31 03:55:04;;;;;;;13.38;3.55;;;;;;;2.85;93.99;99251.38;5071595;28;20116;-76
2023/01/31 03:57:39;;;;;;;18.40;4.07;;;;;;;2.79;92.91;99261.81;5072146;28;20027;-77
2023/01/31 04:00:08;;;;;;;13.90;4.25;;;;;;;2.77;91.97;99264.38;5071946;28;20033;-77
2023/01/31 04:02:36;;;;;;;12.30;3.72;;;;;;;2.67;91.37;99274.03;5072308;28;20032;-76
2023/01/31 04:05:19;;;;;;;22.13;4.20;;;;;;;2.78;91.14;99301.25;5071941;28;20123;-76
2023/01/31 04:07:45;;;;;;;18.38;4.15;;;;;;;2.74;90.82;99283.31;5071671;28;20052;-76
2023/01/31 04:10:18;;;;;;;15.35;3.80;;;;;;;2.75;90.58;99279.03;5071993;28;20059;-77
2023/01/31 04:12:44;;;;;;;21.45;4.63;;;;;;;2.75;90.14;99300.44;5071668;28;20056;-76
2023/01/31 04:15:10;;;;;;;12.43;3.75;;;;;;;2.85;89.75;99289.94;5071885;28;20028;-77
2023/01/31 04:17:36;;;;;;;15.35;3.38;;;;;;;2.93;89.74;99306.06;5071977;28;20543;-76
2023/01/31 04:20:01;;;;;;;16.63;3.90;;;;;;;2.88;89.29;99295.03;5071837;28;20115;-77
2023/01/31 04:22:27;;;;;;;17.52;3.88;;;;;;;2.73;88.92;99284.19;5071870;28;20029;-77
2023/01/31 04:24:52;;;;;;;16.80;3.40;;;;;;;2.69;88.90;99263.69;5071337;28;20048;-76
2023/01/31 04:27:17;;;;;;;18.00;3.83;;;;;;;2.80;88.25;99295.19;5072035;28;20497;-77
2023/01/31 04:29:43;;;;;;;15.68;3.58;;;;;;;2.77;88.39;99296.97;5071761;28;20029;-76
2023/01/31 04:32:08;;;;;;;16.02;4.22;;;;;;;2.80;88.55;99314.94;5071744;28;20020;-76
2023/01/31 04:34:33;;;;;;;21.42;3.75;;;;;;;2.85;88.25;99311.38;5071756;28;20353;-76
2023/01/31 04:36:59;;;;;;;21.92;3.40;;;;;;;2.85;88.01;99337.09;5071626;28;20123;-76
2023/01/31 04:39:24;;;;;;;12.45;2.95;;;;;;;2.81;87.76;99317.47;5071702;28;20024;-76
2023/01/31 04:41:49;;;;;;;14.55;3.28;;;;;;;2.87;87.49;99319.91;5071633;28;20480;-76
2023/01/31 04:44:15;;;;;;;16.33;3.80;;;;;;;2.85;87.85;99323.38;5072035;28;20549;-76
2023/01/31 04:46:41;;;;;;;11.90;3.42;;;;;;;2.96;87.64;99339.47;5071761;28;20017;-77
2023/01/31 04:49:07;;;;;;;19.38;3.95;;;;;;;2.86;87.30;99327.66;5071416;28;20443;-76
2023/01/31 04:51:32;;;;;;;19.17;3.72;;;;;;;3.02;87.38;99329.03;5071253;28;20024;-77
2023/01/31 04:53:58;;;;;;;16.13;3.53;;;;;;;3.11;87.30;99338.28;5071222;28;20365;-77
2023/01/31 04:56:23;;;;;;;16.80;4.30;;;;;;;3.05;87.08;99338.41;5071297;28;20541;-77
2023/01/31 04:58:48;;;;;;;13.10;3.97;;;;;;;2.89;87.20;99319.88;5071529;28;20036;-77
2023/01/31 05:01:14;;;;;;;12.52;3.55;;;;;;;2.97;86.97;99331.69;5071581;28;20070;-77
2023/01/31 05:03:39;;;;;;;13.02;3.28;;;;;;;2.94;87.09;99344.63;5071543;28;20060;-77
2023/01/31 05:06:05;;;;;;;16.65;3.38;;;;;;;2.89;86.43;99336.16;5071831;28;20036;-77
2023/01/31 05:08:30;;;;;;;13.85;3.38;;;;;;;2.85;85.86;99326.81;5075339;28;20108;-77
2023/01/31 05:11:00;;;;;;;19.15;3.80;;;;;;;3.03;85.57;99350.44;5074996;28;20455;-77
2023/01/31 05:13:26;;;;;;;14.90;4.20;;;;;;;2.98;85.38;99359.13;5075435;28;20456;-77
2023/01/31 05:15:52;;;;;;;8.35;3.20;;;;;;;3.04;85.32;99363.31;5075037;28;20020;-77
2023/01/31 05:18:18;;;;;;;17.92;4.38;;;;;;;3.06;84.83;99360.69;5075171;28;20103;-77
2023/01/31 05:20:43;;;;;;;13.25;3.17;;;;;;;2.95;84.54;99351.47;5075167;28;20103;-77
2023/01/31 05:23:09;;;;;;;11.98;3.83;;;;;;;2.88;84.72;99344.75;5074654;28;20036;-77
2023/01/31 05:25:36;;;;;;;15.50;5.28;;;;;;;2.91;84.35;99364.44;5074798;28;20074;-77
2023/01/31 05:28:03;;;;;;;15.88;3.50;;;;;;;2.87;84.50;99363.66;5074819;28;20032;-77
2023/01/31 05:30:28;;;;;;;14.43;3.78;;;;;;;2.95;84.38;99397.78;5075135;28;20456;-77
2023/01/31 05:32:53;;;;;;;20.45;4.88;;;;;;;2.83;84.47;99376.59;5074842;28;20154;-77
2023/01/31 05:35:19;;;;;;;18.80;4.90;;;;;;;3.04;84.64;99396.75;5075086;28;20027;-77
2023/01/31 05:37:45;;;;;;;22.00;7.13;;;;;;;3.06;84.51;99404.44;5074930;28;20035;-77
2023/01/31 05:40:15;;;;;;;19.05;5.80;;;;;;;2.96;85.01;99422.63;5074796;28;20301;-77
2023/01/31 05:42:40;;;;;;;16.33;3.58;;;;;;;2.97;84.50;99408.88;5074875;28;20032;-77
2023/01/31 05:45:08;;;;;;;24.50;4.50;;;;;;;2.98;84.82;99407.16;5074307;28;20033;-77
2023/01/31 05:47:34;;;;;;;18.25;3.95;;;;;;;2.88;84.74;99393.63;5074650;28;20063;-77
2023/01/31 05:49:59;;;;;;;16.33;3.92;;;;;;;2.84;84.57;99398.88;5074445;28;20028;-77
2023/01/31 05:52:25;;;;;;;17.30;3.75;;;;;;;2.73;84.32;99378.47;5073199;28;20026;-77
2023/01/31 05:54:50;;;;;;;12.57;3.10;;;;;;;2.98;84.79;99430.31;5074392;28;20487;-77
2023/01/31 05:57:16;;;;;;;12.45;2.65;;;;;;;2.92;84.28;99402.13;5074878;28;20036;-77
2023/01/31 05:59:41;;;;;;;13.93;2.80;;;;;;;2.92;83.88;99422.72;5074429;28;20021;-77
2023/01/31 06:02:16;;;;;;;14.48;2.83;;;;;;;2.96;83.75;99402.03;5074083;28;20444;-77
2023/01/31 06:04:41;;;;;;;15.63;3.50;;;;;;;3.13;83.46;99436.88;5074263;28;20017;-77
2023/01/31 06:07:06;;;;;;;11.93;3.25;;;;;;;2.91;83.23;99400.44;5074266;28;20115;-77
2023/01/31 06:09:32;;;;;;;15.13;3.30;;;;;;;2.99;82.95;99416.56;5074430;28;20044;-77
2023/01/31 06:11:57;;;;;;;14.02;4.00;;;;;;;3.01;83.31;99435.41;5073904;28;20067;-77
2023/01/31 06:14:22;;;;;;;11.00;3.95;;;;;;;2.83;82.71;99420.31;5074186;28;20028;-77
2023/01/31 06:16:47;;;;;;;10.43;3.17;;;;;;;3.00;83.26;99447.41;5073494;28;20453;-77
2023/01/31 06:19:13;;;;;;;9.65;3.00;;;;;;;2.88;83.07;99416.78;5073990;28;20521;-75
2023/01/31 06:21:38;;;;;;;15.27;3.00;;;;;;;3.01;82.07;99440.53;5073836;28;20111;-75
2023/01/31 06:24:04;;;;;;;10.63;3.17;;;;;;;2.95;81.65;99413.22;5073594;28;20097;-77
2023/01/31 06:26:29;;;;;;;14.00;3.38;;;;;;;2.96;81.52;99427.78;5074211;28;20020;-77
2023/01/31 06:28:54;;;;;;;14.63;3.30;;;;;;;2.71;81.89;99413.69;5073709;28;20047;-77
2023/01/31 06:31:20;;;;;;;12.48;3.25;;;;;;;3.04;81.69;99450.78;5074291;28;20025;-77
2023/01/31 06:33:45;;;;;;;17.52;3.13;;;;;;;3.05;81.38;99439.59;5073773;28;20033;-77
2023/01/31 06:36:11;;;;;;;16.75;3.88;;;;;;;2.84;81.43;99419.44;5073508;28;20020;-77
2023/01/31 06:38:36;;;;;;;12.18;2.47;;;;;;;3.03;81.67;99456.78;5074110;28;20456;-77
2023/01/31 06:41:01;;;;;;;12.50;3.72;;;;;;;3.00;81.96;99444.00;5073403;28;20465;-77
2023/01/31 06:43:26;;;;;;;12.15;2.90;;;;;;;3.01;81.99;99448.25;5073637;28;20024;-77
2023/01/31 06:45:52;;;;;;;14.32;3.22;;;;;;;2.94;82.01;99459.53;5073470;28;20464;-77
2023/01/31 06:48:18;;;;;;;13.68;3.67;;;;;;;2.90;82.13;99447.59;5073566;28;20361;-77
2023/01/31 06:50:44;;;;;;;11.52;3.60;;;;;;;3.03;82.27;99472.22;5073598;28;20467;-77
2023/01/31 06:53:09;;;;;;;14.32;3.30;;;;;;;2.92;82.47;99451.00;5073255;28;20320;-77
2023/01/31 06:55:34;;;;;;;14.77;3.50;;;;;;;3.10;82.70;99471.25;5073277;28;20028;-77
2023/01/31 06:58:00;;;;;;;15.77;3.90;;;;;;;3.05;82.83;99467.06;5073022;28;20025;-77
2023/01/31 07:00:25;;;;;;;13.88;3.72;;;;;;;2.98;83.13;99448.31;5073416;28;20029;-77
2023/01/31 07:02:52;;;;;;;15.32;4.13;;;;;;;3.00;83.36;99450.00;5072848;28;20482;-77
2023/01/31 07:05:19;;;;;;;14.18;3.75;;;;;;;3.19;83.15;99473.63;5072302;28;20028;-77
2023/01/31 07:07:45;;;;;;;13.23;3.60;;;;;;;3.02;83.26;99449.94;5072132;28;20051;-77
2023/01/31 07:10:11;;;;;;;18.08;4.97;;;;;;;3.06;83.40;99451.59;5071466;28;20035;-77
2023/01/31 07:12:37;;;;;;;12.43;3.65;;;;;;;3.01;83.71;99453.41;5072739;28;20070;-77
2023/01/31 07:15:03;;;;;;;16.80;3.53;;;;;;;2.98;83.80;99454.31;5072778;28;20036;-77
2023/01/31 07:17:28;;;;;;;17.92;4.35;;;;;;;3.14;83.52;99475.44;5072143;28;20021;-77
2023/01/31 07:19:54;;;;;;;16.38;4.05;;;;;;;2.96;83.75;99461.22;5072493;28;20195;-77
2023/01/31 07:22:19;;;;;;;19.95;5.25;;;;;;;2.88;83.84;99477.66;5072944;28;20123;-77
2023/01/31 07:24:44;;;;;;;18.80;4.75;;;;;;;2.68;84.16;99484.00;5072625;28;20391;-77
2023/01/31 07:27:13;;;;;;;15.73;3.60;;;;;;;2.33;86.22;99491.47;5072800;28;20547;-78
2023/01/31 07:29:38;;;;;;;19.10;3.80;;;;;;;2.26;86.52;99506.13;5071810;28;20514;-77
2023/01/31 07:32:04;;;;;;;13.18;4.00;;;;;;;2.14;87.13;99519.13;5072277;28;20032;-78
2023/01/31 07:34:29;;;;;;;16.92;3.80;;;;;;;1.91;87.89;99507.47;5072572;28;20029;-77
2023/01/31 07:36:55;;;;;;;17.48;4.80;;;;;;;1.72;88.49;99491.44;5072340;28;20102;-78
2023/01/31 07:39:20;;;;;;;16.13;4.40;;;;;;;1.62;89.62;99481.34;5071333;28;20024;-77
2023/01/31 07:41:45;;;;;;;14.68;4.53;;;;;;;1.96;89.16;99527.97;5072428;28;20037;-77
2023/01/31 07:44:11;;;;;;;14.25;3.42;;;;;;;1.81;89.15;99500.75;5070844;28;20059;-77
2023/01/31 07:46:36;;;;;;;14.40;3.67;;;;;;;1.83;89.03;99490.47;5072396;28;20021;-77
2023/01/31 07:49:02;;;;;;;16.77;3.97;;;;;;;2.02;88.78;99529.59;5072135;28;20028;-77
2023/01/31 07:51:27;;;;;;;13.15;4.28;;;;;;;1.79;88.26;99486.25;5072280;28;20035;-77
2023/01/31 07:53:53;;;;;;;17.60;3.63;;;;;;;2.10;89.07;99536.31;5072479;28;20036;-77
2023/01/31 07:56:20;;;;;;;16.50;3.85;;;;;;;2.10;87.62;99528.59;5072354;28;20115;-77
2023/01/31 07:58:48;;;;;;;9.80;3.53;;;;;;;2.08;86.80;99517.53;5072617;28;20028;-77
2023/01/31 08:03:58;;;;;;;9.90;3.45;;;;;;;2.18;85.53;99538.78;5072201;28;20039;-77
2023/01/31 08:06:24;;;;;;;15.02;3.80;;;;;;;2.28;85.61;99554.94;5072305;28;20032;-77
2023/01/31 08:08:49;;;;;;;16.63;3.85;;;;;;;2.21;84.97;99544.72;5072204;28;20044;-77
2023/01/31 08:11:15;;;;;;;11.52;3.20;;;;;;;2.22;84.82;99538.72;5071856;28;20365;-77
2023/01/31 08:13:40;;;;;;;14.88;4.28;;;;;;;2.10;85.15;99532.91;5072213;28;20029;-77
2023/01/31 08:16:10;;;;;;;14.43;3.83;;;;;;;2.33;85.84;99571.97;5071823;28;20062;-77
2023/01/31 08:18:37;;;;;;;13.55;3.50;;;;;;;2.15;85.83;99542.25;5072007;28;20032;-77
2023/01/31 08:21:02;;;;;;;17.92;4.80;;;;;;;2.28;86.55;99570.34;5071944;28;20461;-77
2023/01/31 08:23:29;;;;;;;13.65;4.15;;;;;;;2.11;87.34;99548.31;5072051;28;20123;-78
2023/01/31 08:26:06;;;;;;;14.30;4.30;;;;;;;1.93;88.00;99525.44;5071967;28;20074;-77
2023/01/31 08:28:31;;;;;;;12.80;4.47;;;;;;;2.27;88.46;99569.47;5072002;28;20415;-77
2023/01/31 08:30:57;;;;;;;16.83;3.67;;;;;;;2.16;88.61;99540.53;5071522;28;20082;-78
2023/01/31 08:33:23;;;;;;;15.13;3.95;;;;;;;2.25;89.07;99555.81;5072025;28;20070;-78
2023/01/31 08:35:48;;;;;;;13.80;5.47;;;;;;;2.31;88.99;99560.84;5071953;28;20372;-77
2023/01/31 08:38:13;;;;;;;16.92;4.82;;;;;;;2.43;89.02;99567.53;5071711;28;20024;-77
2023/01/31 08:40:39;;;;;;;13.60;3.85;;;;;;;2.39;89.42;99565.88;5073390;28;20020;-77
2023/01/31 08:43:04;;;;;;;18.38;4.07;;;;;;;2.40;89.76;99553.03;5075706;28;20024;-77
2023/01/31 08:45:30;;;;;;;16.13;4.03;;;;;;;2.56;90.45;99569.06;5075607;28;20035;-77
2023/01/31 08:47:58;;;;;;;18.00;4.78;;;;;;;2.61;90.22;99581.84;5076144;28;20028;-77
2023/01/31 08:50:25;;;;;;;10.90;3.60;;;;;;;2.47;89.52;99548.63;5076007;28;20090;-77
2023/01/31 08:52:55;;;;;;;12.88;3.97;;;;;;;2.47;89.60;99544.34;5075820;28;20021;-77
2023/01/31 08:55:21;;;;;;;13.10;3.60;;;;;;;2.38;90.12;99530.78;5075487;28;20058;-77
2023/01/31 08:57:47;;;;;;;11.95;4.18;;;;;;;2.39;89.54;99530.75;5075567;28;20024;-77
2023/01/31 09:00:13;;;;;;;18.92;5.90;;;;;;;2.63;89.89;99577.53;5075573;28;20044;-77
2023/01/31 09:02:39;;;;;;;11.55;3.53;;;;;;;2.71;89.24;99591.97;5075625;28;20455;-77
2023/01/31 09:05:07;;;;;;;20.10;7.90;;;;;;;2.81;89.53;99584.09;5075400;28;20082;-77
2023/01/31 09:07:32;;;;;;;377.63;205.13;;;;;;;2.81;89.06;99584.09;5075604;28;20174;-77
2023/01/31 09:09:58;;;;;;;386.92;200.90;;;;;;;2.78;89.72;99597.84;5075523;28;20178;-77
2023/01/31 09:12:23;;;;;;;101.75;55.42;;;;;;;2.68;89.84;99583.44;5075511;28;20020;-77
2023/01/31 09:14:50;;;;;;;63.65;38.10;;;;;;;2.80;90.16;99592.69;5075590;28;20028;-77
2023/01/31 09:17:15;;;;;;;113.03;74.90;;;;;;;2.92;90.62;99608.78;5075176;28;20107;-77
2023/01/31 09:19:40;;;;;;;18.48;5.18;;;;;;;2.59;90.81;99556.16;5075325;28;20520;-77
2023/01/31 09:22:05;;;;;;;21.80;6.28;;;;;;;2.86;90.53;99605.44;5075439;28;20503;-77
2023/01/31 09:24:31;;;;;;;17.42;4.45;;;;;;;2.87;90.84;99604.59;5075395;28;20044;-77
2023/01/31 09:26:56;;;;;;;22.75;7.18;;;;;;;2.88;91.39;99616.56;5074988;28;20017;-77
2023/01/31 09:29:21;;;;;;;151.80;65.32;;;;;;;2.96;91.54;99619.88;5075207;28;20086;-77
2023/01/31 09:31:51;;;;;;;76.90;32.13;;;;;;;2.91;90.37;99608.81;5075035;28;20077;-77
2023/01/31 09:34:16;;;;;;;271.45;117.13;;;;;;;2.83;91.19;99615.81;5074767;28;20038;-77
2023/01/31 09:36:44;;;;;;;216.68;83.68;;;;;;;2.83;91.56;99621.78;5074762;28;20387;-77
2023/01/31 09:39:11;;;;;;;336.63;141.48;;;;;;;2.66;92.45;99605.78;5074650;28;20029;-77
2023/01/31 09:41:48;;;;;;;43.30;16.60;;;;;;;2.75;92.55;99621.91;5074636;28;20480;-77
2023/01/31 09:44:30;;;;;;;359.42;170.40;;;;;;;2.79;93.00;99624.44;5074510;28;20032;-77
2023/01/31 09:47:14;;;;;;;75.07;33.70;;;;;;;2.84;92.90;99635.50;5074729;28;20024;-78
2023/01/31 09:49:47;;;;;;;93.03;49.67;;;;;;;2.88;92.84;99632.00;5074559;28;20078;-77
2023/01/31 09:52:13;;;;;;;23.02;8.35;;;;;;;2.82;92.42;99606.38;5073404;28;20036;-77
2023/01/31 09:54:40;;;;;;;47.40;23.85;;;;;;;2.99;92.54;99630.09;5074470;28;20034;-77
2023/01/31 09:57:18;;;;;;;39.63;17.23;;;;;;;2.93;92.68;99618.19;5074319;28;20512;-77
2023/01/31 10:00:02;;;;;;;36.63;12.70;;;;;;;3.07;92.63;99635.13;5074468;28;20028;-77
2023/01/31 10:03:01;;;;;;;28.80;13.05;;;;;;;3.05;93.07;99636.88;5074198;28;20047;-77
2023/01/31 10:05:40;;;;;;;28.50;6.28;;;;;;;2.99;92.85;99630.97;5073961;28;20321;-77
2023/01/31 10:08:16;;;;;;;16.98;6.10;;;;;;;2.87;93.31;99612.31;5074161;28;20043;-77
2023/01/31 10:10:52;;;;;;;19.92;7.28;;;;;;;2.80;94.12;99601.25;5074253;28;20472;-77
2023/01/31 10:13:34;;;;;;;18.98;6.07;;;;;;;2.88;95.01;99606.28;5073928;28;20028;-78
2023/01/31 10:16:16;;;;;;;16.55;4.95;;;;;;;2.90;94.85;99602.78;5074284;28;20050;-77
2023/01/31 10:18:47;;;;;;;16.10;5.40;;;;;;;2.97;93.90;99606.13;5074135;28;20044;-77
2023/01/31 10:21:17;;;;;;;17.60;4.88;;;;;;;3.21;93.00;99623.75;5073693;28;20028;-77
2023/01/31 10:24:10;;;;;;;14.73;5.55;;;;;;;3.44;93.87;99614.75;5073674;28;20448;-78
2023/01/31 10:26:38;;;;;;;26.63;7.95;;;;;;;3.06;95.26;99595.69;5074261;28;20063;-77
2023/01/31 10:29:20;;;;;;;26.52;8.18;;;;;;;2.94;96.42;99609.59;5073982;28;20050;-77
2023/01/31 10:32:20;;;;;;;29.17;11.20;;;;;;;3.38;97.81;99609.72;5073769;28;20036;-77
2023/01/31 10:34:51;;;;;;;22.48;8.02;;;;;;;3.16;97.84;99589.53;5073489;28;20036;-77
2023/01/31 10:37:25;;;;;;;;;;;;;;;3.13;98.96;99610.16;5073789;28;20020;-77
2023/01/31 10:40:00;;;;;;;19.15;5.35;;;;;;;3.58;99.59;99591.31;5073668;28;19908;-77
2023/01/31 10:42:25;;;;;;;24.88;8.93;;;;;;;3.75;97.58;99589.28;5073582;28;20036;-77
2023/01/31 10:44:52;;;;;;;16.70;6.32;;;;;;;3.55;96.81;99581.09;5073612;28;20361;-77
2023/01/31 10:47:19;;;;;;;17.27;9.35;;;;;;;3.39;96.99;99554.78;5073511;28;20024;-77
2023/01/31 10:49:47;;;;;;;15.63;7.00;;;;;;;3.74;96.51;99559.22;5073706;28;20052;-77
2023/01/31 10:52:30;;;;;;;23.63;9.00;;;;;;;3.47;96.47;99553.75;5073138;28;20361;-77
2023/01/31 10:55:03;;;;;;;26.65;7.68;;;;;;;3.46;96.51;99556.38;5073330;28;20032;-77
2023/01/31 10:57:29;;;;;;;20.73;6.20;;;;;;;3.87;97.38;99559.81;5073214;28;20028;-77
2023/01/31 10:59:54;;;;;;;20.27;7.43;;;;;;;4.09;96.11;99547.31;5073308;28;20024;-77
2023/01/31 11:02:24;;;;;;;23.00;7.15;;;;;;;3.90;95.95;99570.06;5072904;28;20293;-77
2023/01/31 11:04:52;;;;;;;29.77;9.73;;;;;;;3.74;96.45;99559.22;5071892;28;20017;-77
2023/01/31 11:07:18;;;;;;;61.58;31.17;;;;;;;3.98;96.99;99542.41;5072796;28;20028;-77
2023/01/31 11:09:50;;;;;;;87.05;44.03;;;;;;;3.67;96.16;99526.78;5073134;28;20028;-77
2023/01/31 11:12:16;;;;;;;76.18;38.45;;;;;;;3.40;95.82;99517.84;5072833;28;20033;-77
2023/01/31 11:14:41;;;;;;;139.32;65.10;;;;;;;3.80;97.38;99541.09;5072933;28;20078;-77
2023/01/31 11:17:16;;;;;;;80.15;44.33;;;;;;;3.79;96.54;99556.56;5072665;28;20025;-78
2023/01/31 11:19:50;;;;;;;30.85;12.07;;;;;;;3.37;97.01;99497.31;5073362;28;20468;-77
2023/01/31 11:22:23;;;;;;;19.98;8.40;;;;;;;3.68;97.98;99543.91;5072723;28;20112;-77
2023/01/31 11:24:49;;;;;;;18.90;5.70;;;;;;;3.66;97.35;99528.47;5072986;28;20040;-77
2023/01/31 11:27:34;;;;;;;28.55;11.25;;;;;;;3.47;97.53;99528.00;5072507;28;20074;-78
2023/01/31 11:30:02;;;;;;;52.72;27.45;;;;;;;3.42;98.74;99529.81;5072578;28;20024;-77
2023/01/31 11:32:31;;;;;;;55.70;29.77;;;;;;;3.94;98.68;99528.75;5072288;28;20036;-77
2023/01/31 11:35:04;;;;;;;41.85;19.80;;;;;;;4.02;97.01;99530.31;5072771;28;20514;-77
2023/01/31 11:37:30;;;;;;;283.15;139.98;;;;;;;3.63;98.49;99499.38;5072361;28;20035;-77
2023/01/31 11:40:00;;;;;;;42.90;20.10;;;;;;;3.75;97.78;99517.16;5072697;28;20040;-77
2023/01/31 11:42:26;;;;;;;17.38;8.30;;;;;;;4.03;96.99;99504.50;5072176;28;20036;-77
2023/01/31 11:45:00;;;;;;;16.48;8.40;;;;;;;4.01;95.87;99511.44;5071198;28;20468;-78
2023/01/31 11:48:03;;;;;;;21.60;8.70;;;;;;;3.79;96.28;99507.59;5072426;28;20031;-77
2023/01/31 11:50:36;;;;;;;15.40;6.40;;;;;;;3.91;96.49;99507.34;5072128;28;20035;-77
2023/01/31 11:53:03;;;;;;;16.90;6.20;;;;;;;4.24;95.08;99508.31;5072194;28;20554;-78